Terminal Aerodrome Forecast
Issued by NWS Cleveland, OH

Home | Current Version | Previous Version | Graphics & Text | Print | Product List | Glossary On
Versions: 1 2 3 4 5 6 7 8 9 10 11 12 13 14 15 16 17
078
FTUS41 KCLE 071132
TAFYNG
TAF
KYNG 071132Z 0712/0812 19007KT P6SM SKC
     FM071400 19008KT P6SM BKN250
     FM072300 17006KT P6SM OVC100
     FM080800 15006KT P6SM OVC035=

USA.gov is the U.S. government's official web portal to all federal, state and local government web resources and services.